sensor_id;sensor_type;location;lat;lon;timestamp;P1;durP1;ratioP1;P2;durP2;ratioP2
7154;SDS011;3619;53.784;10.440;2023-11-21T00:01:08;5.67;;;5.47;;
7154;SDS011;3619;53.784;10.440;2023-11-21T00:03:34;6.67;;;6.37;;
7154;SDS011;3619;53.784;10.440;2023-11-21T00:06:04;5.93;;;5.73;;
7154;SDS011;3619;53.784;10.440;2023-11-21T00:08:33;5.90;;;5.70;;
7154;SDS011;3619;53.784;10.440;2023-11-21T00:11:00;5.20;;;5.00;;
7154;SDS011;3619;53.784;10.440;2023-11-21T00:13:27;6.97;;;6.67;;
7154;SDS011;3619;53.784;10.440;2023-11-21T00:15:54;6.37;;;6.17;;
7154;SDS011;3619;53.784;10.440;2023-11-21T00:18:22;6.43;;;6.23;;
7154;SDS011;3619;53.784;10.440;2023-11-21T00:20:49;7.70;;;7.40;;
7154;SDS011;3619;53.784;10.440;2023-11-21T00:23:17;7.60;;;7.20;;
7154;SDS011;3619;53.784;10.440;2023-11-21T00:25:44;7.40;;;7.10;;
7154;SDS011;3619;53.784;10.440;2023-11-21T00:28:10;10.40;;;9.83;;
7154;SDS011;3619;53.784;10.440;2023-11-21T00:30:37;8.67;;;8.37;;
7154;SDS011;3619;53.784;10.440;2023-11-21T00:33:04;8.43;;;8.07;;
7154;SDS011;3619;53.784;10.440;2023-11-21T00:35:31;10.07;;;9.67;;
7154;SDS011;3619;53.784;10.440;2023-11-21T00:37:58;13.27;;;12.77;;
7154;SDS011;3619;53.784;10.440;2023-11-21T00:40:26;10.53;;;10.13;;
7154;SDS011;3619;53.784;10.440;2023-11-21T00:42:53;11.53;;;11.13;;
7154;SDS011;3619;53.784;10.440;2023-11-21T00:45:21;11.50;;;11.10;;
7154;SDS011;3619;53.784;10.440;2023-11-21T00:47:48;12.57;;;12.07;;
7154;SDS011;3619;53.784;10.440;2023-11-21T00:50:15;13.67;;;13.17;;
7154;SDS011;3619;53.784;10.440;2023-11-21T00:52:41;13.70;;;13.20;;
7154;SDS011;3619;53.784;10.440;2023-11-21T00:55:08;15.43;;;14.83;;
7154;SDS011;3619;53.784;10.440;2023-11-21T00:57:38;15.80;;;15.20;;
7154;SDS011;3619;53.784;10.440;2023-11-21T01:00:05;17.23;;;16.57;;
7154;SDS011;3619;53.784;10.440;2023-11-21T01:02:36;17.03;;;16.37;;
7154;SDS011;3619;53.784;10.440;2023-11-21T01:05:03;19.30;;;18.60;;
7154;SDS011;3619;53.784;10.440;2023-11-21T01:07:31;19.43;;;18.73;;
7154;SDS011;3619;53.784;10.440;2023-11-21T01:09:58;21.43;;;20.63;;
7154;SDS011;3619;53.784;10.440;2023-11-21T01:12:25;23.40;;;22.50;;
7154;SDS011;3619;53.784;10.440;2023-11-21T01:14:53;22.17;;;21.27;;
7154;SDS011;3619;53.784;10.440;2023-11-21T01:17:20;24.90;;;23.60;;
7154;SDS011;3619;53.784;10.440;2023-11-21T01:19:48;27.87;;;26.80;;
7154;SDS011;3619;53.784;10.440;2023-11-21T01:22:15;26.10;;;25.10;;
7154;SDS011;3619;53.784;10.440;2023-11-21T01:24:47;32.03;;;30.83;;
7154;SDS011;3619;53.784;10.440;2023-11-21T01:27:16;31.83;;;30.40;;
7154;SDS011;3619;53.784;10.440;2023-11-21T01:29:43;37.03;;;35.63;;
7154;SDS011;3619;53.784;10.440;2023-11-21T01:32:11;36.40;;;35.00;;
7154;SDS011;3619;53.784;10.440;2023-11-21T01:34:38;39.43;;;37.93;;
7154;SDS011;3619;53.784;10.440;2023-11-21T01:37:05;41.73;;;40.03;;
7154;SDS011;3619;53.784;10.440;2023-11-21T01:39:32;40.20;;;38.70;;
7154;SDS011;3619;53.784;10.440;2023-11-21T01:41:59;45.33;;;43.53;;
7154;SDS011;3619;53.784;10.440;2023-11-21T01:44:26;47.07;;;45.27;;
7154;SDS011;3619;53.784;10.440;2023-11-21T01:46:53;46.83;;;45.03;;
7154;SDS011;3619;53.784;10.440;2023-11-21T01:49:21;51.17;;;49.17;;
7154;SDS011;3619;53.784;10.440;2023-11-21T01:51:48;51.80;;;49.80;;
7154;SDS011;3619;53.784;10.440;2023-11-21T01:54:16;58.10;;;55.90;;
7154;SDS011;3619;53.784;10.440;2023-11-21T01:56:45;55.13;;;52.93;;
7154;SDS011;3619;53.784;10.440;2023-11-21T01:59:13;57.63;;;55.43;;
7154;SDS011;3619;53.784;10.440;2023-11-21T02:01:43;67.87;;;65.30;;
7154;SDS011;3619;53.784;10.440;2023-11-21T02:04:12;71.67;;;68.87;;
7154;SDS011;3619;53.784;10.440;2023-11-21T02:06:42;72.43;;;69.73;;
7154;SDS011;3619;53.784;10.440;2023-11-21T02:09:09;65.10;;;62.63;;
7154;SDS011;3619;53.784;10.440;2023-11-21T02:11:40;78.77;;;75.77;;
7154;SDS011;3619;53.784;10.440;2023-11-21T02:14:07;69.93;;;67.10;;
7154;SDS011;3619;53.784;10.440;2023-11-21T02:16:34;75.63;;;72.83;;
7154;SDS011;3619;53.784;10.440;2023-11-21T02:19:02;73.40;;;70.67;;
7154;SDS011;3619;53.784;10.440;2023-11-21T02:21:34;82.67;;;79.57;;
7154;SDS011;3619;53.784;10.440;2023-11-21T02:24:03;87.10;;;83.83;;
7154;SDS011;3619;53.784;10.440;2023-11-21T02:26:30;86.20;;;83.07;;
7154;SDS011;3619;53.784;10.440;2023-11-21T02:28:57;84.00;;;80.93;;
7154;SDS011;3619;53.784;10.440;2023-11-21T02:31:24;88.47;;;85.27;;
7154;SDS011;3619;53.784;10.440;2023-11-21T02:33:52;90.97;;;87.67;;
7154;SDS011;3619;53.784;10.440;2023-11-21T02:36:19;89.70;;;86.47;;
7154;SDS011;3619;53.784;10.440;2023-11-21T02:38:46;96.93;;;93.47;;
7154;SDS011;3619;53.784;10.440;2023-11-21T02:41:15;93.40;;;90.03;;
7154;SDS011;3619;53.784;10.440;2023-11-21T02:43:41;97.20;;;93.70;;
7154;SDS011;3619;53.784;10.440;2023-11-21T02:46:08;89.93;;;86.67;;
7154;SDS011;3619;53.784;10.440;2023-11-21T02:48:35;86.70;;;83.53;;
7154;SDS011;3619;53.784;10.440;2023-11-21T02:51:02;96.90;;;93.40;;
7154;SDS011;3619;53.784;10.440;2023-11-21T02:53:29;102.57;;;98.93;;
7154;SDS011;3619;53.784;10.440;2023-11-21T02:55:56;96.47;;;93.03;;
7154;SDS011;3619;53.784;10.440;2023-11-21T02:58:24;106.30;;;102.50;;
7154;SDS011;3619;53.784;10.440;2023-11-21T03:00:51;102.77;;;98.97;;
7154;SDS011;3619;53.784;10.440;2023-11-21T03:03:20;104.43;;;100.73;;
7154;SDS011;3619;53.784;10.440;2023-11-21T03:05:48;100.80;;;97.20;;
7154;SDS011;3619;53.784;10.440;2023-11-21T03:08:15;102.83;;;99.13;;
7154;SDS011;3619;53.784;10.440;2023-11-21T03:10:42;100.83;;;97.23;;
7154;SDS011;3619;53.784;10.440;2023-11-21T03:13:09;99.67;;;96.10;;
7154;SDS011;3619;53.784;10.440;2023-11-21T03:15:37;97.37;;;93.87;;
7154;SDS011;3619;53.784;10.440;2023-11-21T03:18:04;99.47;;;95.93;;
7154;SDS011;3619;53.784;10.440;2023-11-21T03:20:31;100.00;;;96.17;;
7154;SDS011;3619;53.784;10.440;2023-11-21T03:22:58;97.53;;;93.97;;
7154;SDS011;3619;53.784;10.440;2023-11-21T03:25:25;93.73;;;90.33;;
7154;SDS011;3619;53.784;10.440;2023-11-21T03:27:52;89.37;;;86.17;;
7154;SDS011;3619;53.784;10.440;2023-11-21T03:30:19;85.57;;;82.43;;
7154;SDS011;3619;53.784;10.440;2023-11-21T03:32:47;89.07;;;85.87;;
7154;SDS011;3619;53.784;10.440;2023-11-21T03:35:14;93.63;;;90.27;;
7154;SDS011;3619;53.784;10.440;2023-11-21T03:37:41;87.67;;;84.47;;
7154;SDS011;3619;53.784;10.440;2023-11-21T03:40:09;102.40;;;98.80;;
7154;SDS011;3619;53.784;10.440;2023-11-21T03:42:37;102.70;;;99.00;;
7154;SDS011;3619;53.784;10.440;2023-11-21T03:45:04;105.40;;;101.67;;
7154;SDS011;3619;53.784;10.440;2023-11-21T03:47:32;107.40;;;103.53;;
7154;SDS011;3619;53.784;10.440;2023-11-21T03:50:00;103.17;;;99.50;;
7154;SDS011;3619;53.784;10.440;2023-11-21T03:52:28;108.53;;;104.70;;
7154;SDS011;3619;53.784;10.440;2023-11-21T03:54:55;113.83;;;109.83;;
7154;SDS011;3619;53.784;10.440;2023-11-21T03:57:22;110.90;;;107.00;;
7154;SDS011;3619;53.784;10.440;2023-11-21T03:59:48;117.43;;;113.33;;
7154;SDS011;3619;53.784;10.440;2023-11-21T04:02:16;114.73;;;110.73;;
7154;SDS011;3619;53.784;10.440;2023-11-21T04:04:43;126.60;;;122.07;;
7154;SDS011;3619;53.784;10.440;2023-11-21T04:07:11;127.57;;;123.13;;
7154;SDS011;3619;53.784;10.440;2023-11-21T04:09:40;112.83;;;108.87;;
7154;SDS011;3619;53.784;10.440;2023-11-21T04:12:07;122.63;;;118.33;;
7154;SDS011;3619;53.784;10.440;2023-11-21T04:14:35;122.63;;;118.37;;
7154;SDS011;3619;53.784;10.440;2023-11-21T04:17:01;119.57;;;115.40;;
7154;SDS011;3619;53.784;10.440;2023-11-21T04:19:29;122.83;;;118.53;;
7154;SDS011;3619;53.784;10.440;2023-11-21T04:21:55;116.20;;;112.10;;
7154;SDS011;3619;53.784;10.440;2023-11-21T04:24:25;127.93;;;123.50;;
7154;SDS011;3619;53.784;10.440;2023-11-21T04:26:52;116.67;;;112.60;;
7154;SDS011;3619;53.784;10.440;2023-11-21T04:29:19;123.90;;;119.60;;
7154;SDS011;3619;53.784;10.440;2023-11-21T04:31:46;138.37;;;133.43;;
7154;SDS011;3619;53.784;10.440;2023-11-21T04:34:14;139.07;;;134.23;;
7154;SDS011;3619;53.784;10.440;2023-11-21T04:36:41;141.73;;;136.83;;
7154;SDS011;3619;53.784;10.440;2023-11-21T04:39:07;130.27;;;125.77;;
7154;SDS011;3619;53.784;10.440;2023-11-21T04:41:35;135.27;;;130.57;;
7154;SDS011;3619;53.784;10.440;2023-11-21T04:44:04;147.93;;;142.83;;
7154;SDS011;3619;53.784;10.440;2023-11-21T04:46:31;146.03;;;141.03;;
7154;SDS011;3619;53.784;10.440;2023-11-21T04:48:58;149.97;;;144.80;;
7154;SDS011;3619;53.784;10.440;2023-11-21T04:51:25;153.83;;;148.53;;
7154;SDS011;3619;53.784;10.440;2023-11-21T04:53:53;149.07;;;143.97;;
7154;SDS011;3619;53.784;10.440;2023-11-21T04:56:19;160.13;;;154.70;;
7154;SDS011;3619;53.784;10.440;2023-11-21T04:58:48;164.20;;;158.60;;
7154;SDS011;3619;53.784;10.440;2023-11-21T05:01:14;184.50;;;178.30;;
7154;SDS011;3619;53.784;10.440;2023-11-21T05:03:41;171.07;;;165.27;;
7154;SDS011;3619;53.784;10.440;2023-11-21T05:06:09;181.97;;;175.57;;
7154;SDS011;3619;53.784;10.440;2023-11-21T05:08:36;180.00;;;173.93;;
7154;SDS011;3619;53.784;10.440;2023-11-21T05:11:03;189.67;;;183.37;;
7154;SDS011;3619;53.784;10.440;2023-11-21T05:13:33;188.47;;;182.17;;
7154;SDS011;3619;53.784;10.440;2023-11-21T05:16:02;192.60;;;186.13;;
7154;SDS011;3619;53.784;10.440;2023-11-21T05:18:32;180.50;;;174.40;;
7154;SDS011;3619;53.784;10.440;2023-11-21T05:20:59;187.17;;;180.93;;
7154;SDS011;3619;53.784;10.440;2023-11-21T05:23:27;196.57;;;190.00;;
7154;SDS011;3619;53.784;10.440;2023-11-21T05:25:53;184.37;;;178.07;;
7154;SDS011;3619;53.784;10.440;2023-11-21T05:28:21;197.37;;;190.80;;
7154;SDS011;3619;53.784;10.440;2023-11-21T05:30:48;200.93;;;194.20;;
7154;SDS011;3619;53.784;10.440;2023-11-21T05:33:16;178.53;;;172.50;;
7154;SDS011;3619;53.784;10.440;2023-11-21T05:35:43;194.47;;;187.97;;
7154;SDS011;3619;53.784;10.440;2023-11-21T05:38:10;194.63;;;188.10;;
7154;SDS011;3619;53.784;10.440;2023-11-21T05:40:38;184.67;;;178.47;;
7154;SDS011;3619;53.784;10.440;2023-11-21T05:43:05;206.90;;;200.00;;
7154;SDS011;3619;53.784;10.440;2023-11-21T05:45:31;205.20;;;198.40;;
7154;SDS011;3619;53.784;10.440;2023-11-21T05:47:59;193.43;;;187.00;;
7154;SDS011;3619;53.784;10.440;2023-11-21T05:50:29;200.13;;;193.43;;
7154;SDS011;3619;53.784;10.440;2023-11-21T05:52:56;196.30;;;189.73;;
7154;SDS011;3619;53.784;10.440;2023-11-21T05:55:25;174.47;;;168.57;;
7154;SDS011;3619;53.784;10.440;2023-11-21T05:57:53;202.83;;;196.07;;
7154;SDS011;3619;53.784;10.440;2023-11-21T06:00:20;209.33;;;202.40;;
7154;SDS011;3619;53.784;10.440;2023-11-21T06:02:47;195.57;;;189.03;;
7154;SDS011;3619;53.784;10.440;2023-11-21T06:05:17;194.63;;;188.13;;
7154;SDS011;3619;53.784;10.440;2023-11-21T06:07:46;202.23;;;195.53;;
7154;SDS011;3619;53.784;10.440;2023-11-21T06:10:12;206.77;;;199.87;;
7154;SDS011;3619;53.784;10.440;2023-11-21T06:12:39;209.10;;;202.17;;
7154;SDS011;3619;53.784;10.440;2023-11-21T06:15:08;207.63;;;200.73;;
7154;SDS011;3619;53.784;10.440;2023-11-21T06:17:38;224.60;;;217.00;;
7154;SDS011;3619;53.784;10.440;2023-11-21T06:20:06;219.33;;;212.03;;
7154;SDS011;3619;53.784;10.440;2023-11-21T06:22:35;220.97;;;213.60;;
7154;SDS011;3619;53.784;10.440;2023-11-21T06:25:04;220.37;;;213.07;;
7154;SDS011;3619;53.784;10.440;2023-11-21T06:27:32;241.77;;;233.73;;
7154;SDS011;3619;53.784;10.440;2023-11-21T06:30:01;253.37;;;242.77;;
7154;SDS011;3619;53.784;10.440;2023-11-21T06:32:29;239.60;;;231.50;;
7154;SDS011;3619;53.784;10.440;2023-11-21T06:34:56;235.87;;;228.10;;
7154;SDS011;3619;53.784;10.440;2023-11-21T06:37:24;224.93;;;217.57;;
7154;SDS011;3619;53.784;10.440;2023-11-21T06:39:52;232.87;;;225.23;;
7154;SDS011;3619;53.784;10.440;2023-11-21T06:42:20;211.60;;;204.47;;
7154;SDS011;3619;53.784;10.440;2023-11-21T06:44:47;206.30;;;199.50;;
7154;SDS011;3619;53.784;10.440;2023-11-21T06:47:16;234.33;;;226.63;;
7154;SDS011;3619;53.784;10.440;2023-11-21T06:49:45;231.47;;;223.80;;
7154;SDS011;3619;53.784;10.440;2023-11-21T06:52:13;223.63;;;216.30;;
7154;SDS011;3619;53.784;10.440;2023-11-21T06:54:40;216.73;;;209.63;;
7154;SDS011;3619;53.784;10.440;2023-11-21T06:57:06;231.13;;;223.57;;
7154;SDS011;3619;53.784;10.440;2023-11-21T06:59:35;206.23;;;199.40;;
7154;SDS011;3619;53.784;10.440;2023-11-21T07:02:02;215.90;;;208.80;;
7154;SDS011;3619;53.784;10.440;2023-11-21T07:04:29;207.70;;;200.77;;
7154;SDS011;3619;53.784;10.440;2023-11-21T07:06:56;199.47;;;192.87;;
7154;SDS011;3619;53.784;10.440;2023-11-21T07:09:23;196.57;;;190.03;;
7154;SDS011;3619;53.784;10.440;2023-11-21T07:11:51;191.20;;;184.83;;
7154;SDS011;3619;53.784;10.440;2023-11-21T07:14:17;176.30;;;170.40;;
7154;SDS011;3619;53.784;10.440;2023-11-21T07:16:46;180.40;;;174.37;;
7154;SDS011;3619;53.784;10.440;2023-11-21T07:19:13;167.23;;;161.57;;
7154;SDS011;3619;53.784;10.440;2023-11-21T07:21:40;151.13;;;145.97;;
7154;SDS011;3619;53.784;10.440;2023-11-21T07:24:07;160.37;;;154.93;;
7154;SDS011;3619;53.784;10.440;2023-11-21T07:26:36;160.50;;;155.00;;
7154;SDS011;3619;53.784;10.440;2023-11-21T07:29:03;148.13;;;143.03;;
7154;SDS011;3619;53.784;10.440;2023-11-21T07:31:31;151.90;;;146.70;;
7154;SDS011;3619;53.784;10.440;2023-11-21T07:34:00;144.13;;;139.17;;
7154;SDS011;3619;53.784;10.440;2023-11-21T07:36:27;131.80;;;127.23;;
7154;SDS011;3619;53.784;10.440;2023-11-21T07:38:54;132.90;;;128.30;;
7154;SDS011;3619;53.784;10.440;2023-11-21T07:41:21;132.47;;;127.87;;
7154;SDS011;3619;53.784;10.440;2023-11-21T07:43:48;140.77;;;135.90;;
7154;SDS011;3619;53.784;10.440;2023-11-21T07:46:15;127.13;;;122.70;;
7154;SDS011;3619;53.784;10.440;2023-11-21T07:48:42;122.00;;;117.10;;
7154;SDS011;3619;53.784;10.440;2023-11-21T07:51:12;106.20;;;102.40;;
7154;SDS011;3619;53.784;10.440;2023-11-21T07:53:39;108.60;;;104.70;;
7154;SDS011;3619;53.784;10.440;2023-11-21T07:56:06;108.30;;;104.50;;
7154;SDS011;3619;53.784;10.440;2023-11-21T07:58:34;88.40;;;85.17;;
7154;SDS011;3619;53.784;10.440;2023-11-21T08:01:01;89.53;;;86.30;;
7154;SDS011;3619;53.784;10.440;2023-11-21T08:03:29;76.47;;;73.57;;
7154;SDS011;3619;53.784;10.440;2023-11-21T08:05:56;76.73;;;73.87;;
7154;SDS011;3619;53.784;10.440;2023-11-21T08:08:24;63.23;;;60.83;;
7154;SDS011;3619;53.784;10.440;2023-11-21T08:10:52;64.83;;;62.33;;
7154;SDS011;3619;53.784;10.440;2023-11-21T08:13:22;60.17;;;57.87;;
7154;SDS011;3619;53.784;10.440;2023-11-21T08:15:49;61.53;;;58.70;;
7154;SDS011;3619;53.784;10.440;2023-11-21T08:18:16;60.10;;;57.80;;
7154;SDS011;3619;53.784;10.440;2023-11-21T08:20:43;48.57;;;46.67;;
7154;SDS011;3619;53.784;10.440;2023-11-21T08:23:13;55.47;;;53.37;;
7154;SDS011;3619;53.784;10.440;2023-11-21T08:25:43;54.10;;;52.00;;
7154;SDS011;3619;53.784;10.440;2023-11-21T08:28:10;49.53;;;47.63;;
7154;SDS011;3619;53.784;10.440;2023-11-21T08:30:37;53.27;;;51.23;;
7154;SDS011;3619;53.784;10.440;2023-11-21T08:33:04;49.77;;;47.87;;
7154;SDS011;3619;53.784;10.440;2023-11-21T08:35:32;49.20;;;47.30;;
7154;SDS011;3619;53.784;10.440;2023-11-21T08:37:59;52.63;;;50.63;;
7154;SDS011;3619;53.784;10.440;2023-11-21T08:40:27;53.63;;;51.53;;
7154;SDS011;3619;53.784;10.440;2023-11-21T08:42:55;51.43;;;49.43;;
7154;SDS011;3619;53.784;10.440;2023-11-21T08:45:24;45.60;;;43.87;;
7154;SDS011;3619;53.784;10.440;2023-11-21T08:47:51;45.33;;;43.60;;
7154;SDS011;3619;53.784;10.440;2023-11-21T08:50:18;47.47;;;45.67;;
7154;SDS011;3619;53.784;10.440;2023-11-21T08:52:45;49.53;;;47.63;;
7154;SDS011;3619;53.784;10.440;2023-11-21T08:55:13;53.87;;;51.67;;
7154;SDS011;3619;53.784;10.440;2023-11-21T08:57:41;55.30;;;53.20;;
7154;SDS011;3619;53.784;10.440;2023-11-21T09:00:12;54.30;;;52.20;;
7154;SDS011;3619;53.784;10.440;2023-11-21T09:02:42;56.40;;;54.27;;
7154;SDS011;3619;53.784;10.440;2023-11-21T09:05:09;72.23;;;69.53;;
7154;SDS011;3619;53.784;10.440;2023-11-21T09:07:38;75.50;;;72.70;;
7154;SDS011;3619;53.784;10.440;2023-11-21T09:10:07;70.00;;;67.40;;
7154;SDS011;3619;53.784;10.440;2023-11-21T09:12:34;85.60;;;82.37;;
7154;SDS011;3619;53.784;10.440;2023-11-21T09:15:03;90.07;;;86.80;;
7154;SDS011;3619;53.784;10.440;2023-11-21T09:17:33;98.97;;;95.47;;
7154;SDS011;3619;53.784;10.440;2023-11-21T09:20:00;91.40;;;88.10;;
7154;SDS011;3619;53.784;10.440;2023-11-21T09:22:30;100.47;;;96.87;;
7154;SDS011;3619;53.784;10.440;2023-11-21T09:24:57;95.70;;;92.30;;
7154;SDS011;3619;53.784;10.440;2023-11-21T09:27:24;106.77;;;102.97;;
7154;SDS011;3619;53.784;10.440;2023-11-21T09:29:51;96.43;;;92.93;;
7154;SDS011;3619;53.784;10.440;2023-11-21T09:32:19;109.17;;;105.30;;
7154;SDS011;3619;53.784;10.440;2023-11-21T09:34:48;94.60;;;91.20;;
7154;SDS011;3619;53.784;10.440;2023-11-21T09:37:15;94.17;;;90.80;;
7154;SDS011;3619;53.784;10.440;2023-11-21T09:39:44;92.03;;;88.73;;
7154;SDS011;3619;53.784;10.440;2023-11-21T09:42:13;97.10;;;93.60;;
7154;SDS011;3619;53.784;10.440;2023-11-21T09:44:48;99.87;;;96.27;;
7154;SDS011;3619;53.784;10.440;2023-11-21T09:47:20;87.23;;;84.07;;
7154;SDS011;3619;53.784;10.440;2023-11-21T09:49:49;78.93;;;76.03;;
7154;SDS011;3619;53.784;10.440;2023-11-21T09:52:22;77.53;;;74.67;;
7154;SDS011;3619;53.784;10.440;2023-11-21T09:54:51;73.40;;;70.70;;
7154;SDS011;3619;53.784;10.440;2023-11-21T09:57:19;70.23;;;67.63;;
7154;SDS011;3619;53.784;10.440;2023-11-21T09:59:49;76.27;;;73.47;;
7154;SDS011;3619;53.784;10.440;2023-11-21T10:02:20;86.27;;;83.17;;
7154;SDS011;3619;53.784;10.440;2023-11-21T10:04:52;84.27;;;81.17;;
7154;SDS011;3619;53.784;10.440;2023-11-21T10:07:20;97.17;;;93.67;;
7154;SDS011;3619;53.784;10.440;2023-11-21T10:09:47;106.63;;;102.83;;
7154;SDS011;3619;53.784;10.440;2023-11-21T10:12:15;104.13;;;100.43;;
7154;SDS011;3619;53.784;10.440;2023-11-21T10:14:42;106.87;;;103.07;;
7154;SDS011;3619;53.784;10.440;2023-11-21T10:17:10;122.23;;;117.97;;
7154;SDS011;3619;53.784;10.440;2023-11-21T10:19:38;125.40;;;121.03;;
7154;SDS011;3619;53.784;10.440;2023-11-21T10:22:07;118.70;;;114.50;;
7154;SDS011;3619;53.784;10.440;2023-11-21T10:24:34;125.53;;;121.13;;
7154;SDS011;3619;53.784;10.440;2023-11-21T10:27:02;135.43;;;130.73;;
7154;SDS011;3619;53.784;10.440;2023-11-21T10:29:31;137.67;;;132.87;;
7154;SDS011;3619;53.784;10.440;2023-11-21T10:32:01;112.10;;;108.17;;
7154;SDS011;3619;53.784;10.440;2023-11-21T10:34:28;124.50;;;120.20;;
7154;SDS011;3619;53.784;10.440;2023-11-21T10:36:55;118.13;;;114.03;;
7154;SDS011;3619;53.784;10.440;2023-11-21T10:39:24;124.10;;;119.80;;
7154;SDS011;3619;53.784;10.440;2023-11-21T10:41:55;115.23;;;111.20;;
7154;SDS011;3619;53.784;10.440;2023-11-21T10:44:23;120.17;;;115.97;;
7154;SDS011;3619;53.784;10.440;2023-11-21T10:46:52;117.40;;;113.30;;
7154;SDS011;3619;53.784;10.440;2023-11-21T10:49:21;103.20;;;99.40;;
7154;SDS011;3619;53.784;10.440;2023-11-21T10:51:49;119.53;;;115.33;;
7154;SDS011;3619;53.784;10.440;2023-11-21T10:54:18;115.47;;;111.43;;
7154;SDS011;3619;53.784;10.440;2023-11-21T10:56:48;112.00;;;108.10;;
7154;SDS011;3619;53.784;10.440;2023-11-21T10:59:17;120.80;;;116.60;;
7154;SDS011;3619;53.784;10.440;2023-11-21T11:01:46;119.80;;;115.60;;
7154;SDS011;3619;53.784;10.440;2023-11-21T11:04:16;135.47;;;130.80;;
7154;SDS011;3619;53.784;10.440;2023-11-21T11:06:45;138.77;;;133.97;;
7154;SDS011;3619;53.784;10.440;2023-11-21T11:09:20;147.53;;;142.47;;
7154;SDS011;3619;53.784;10.440;2023-11-21T11:11:49;159.63;;;154.23;;
7154;SDS011;3619;53.784;10.440;2023-11-21T11:14:18;145.03;;;140.03;;
7154;SDS011;3619;53.784;10.440;2023-11-21T11:16:50;132.77;;;128.17;;
7154;SDS011;3619;53.784;10.440;2023-11-21T11:19:19;131.37;;;126.83;;
7154;SDS011;3619;53.784;10.440;2023-11-21T11:21:48;134.43;;;129.80;;
7154;SDS011;3619;53.784;10.440;2023-11-21T11:24:34;123.50;;;119.20;;
7154;SDS011;3619;53.784;10.440;2023-11-21T11:27:15;111.70;;;107.80;;
7154;SDS011;3619;53.784;10.440;2023-11-21T11:29:53;120.47;;;116.27;;
7154;SDS011;3619;53.784;10.440;2023-11-21T11:32:31;89.17;;;85.97;;
7154;SDS011;3619;53.784;10.440;2023-11-21T11:35:09;99.87;;;96.33;;
7154;SDS011;3619;53.784;10.440;2023-11-21T11:37:42;83.60;;;80.60;;
7154;SDS011;3619;53.784;10.440;2023-11-21T11:40:10;85.93;;;82.80;;
7154;SDS011;3619;53.784;10.440;2023-11-21T11:42:39;79.33;;;76.43;;
7154;SDS011;3619;53.784;10.440;2023-11-21T11:45:22;72.87;;;70.17;;
7154;SDS011;3619;53.784;10.440;2023-11-21T11:47:56;75.27;;;72.47;;
7154;SDS011;3619;53.784;10.440;2023-11-21T11:50:25;72.80;;;70.10;;
7154;SDS011;3619;53.784;10.440;2023-11-21T11:52:53;72.37;;;69.67;;
7154;SDS011;3619;53.784;10.440;2023-11-21T11:55:22;76.30;;;73.50;;
7154;SDS011;3619;53.784;10.440;2023-11-21T11:57:52;74.77;;;71.97;;
7154;SDS011;3619;53.784;10.440;2023-11-21T12:00:21;69.27;;;66.67;;
7154;SDS011;3619;53.784;10.440;2023-11-21T12:03:02;58.07;;;55.77;;
7154;SDS011;3619;53.784;10.440;2023-11-21T12:05:31;67.17;;;64.67;;
7154;SDS011;3619;53.784;10.440;2023-11-21T12:07:59;56.43;;;54.27;;
7154;SDS011;3619;53.784;10.440;2023-11-21T12:10:27;53.20;;;51.17;;
7154;SDS011;3619;53.784;10.440;2023-11-21T12:12:57;49.10;;;47.20;;
7154;SDS011;3619;53.784;10.440;2023-11-21T12:15:25;49.03;;;47.13;;
7154;SDS011;3619;53.784;10.440;2023-11-21T12:17:54;45.80;;;44.03;;
7154;SDS011;3619;53.784;10.440;2023-11-21T12:20:21;47.33;;;45.53;;
7154;SDS011;3619;53.784;10.440;2023-11-21T12:22:49;41.73;;;40.13;;
7154;SDS011;3619;53.784;10.440;2023-11-21T12:25:19;41.80;;;40.20;;
7154;SDS011;3619;53.784;10.440;2023-11-21T12:27:47;40.40;;;38.90;;
7154;SDS011;3619;53.784;10.440;2023-11-21T12:30:17;45.27;;;43.57;;
7154;SDS011;3619;53.784;10.440;2023-11-21T12:32:45;46.27;;;44.50;;
7154;SDS011;3619;53.784;10.440;2023-11-21T12:35:14;47.77;;;45.97;;
7154;SDS011;3619;53.784;10.440;2023-11-21T12:37:44;52.80;;;50.80;;
7154;SDS011;3619;53.784;10.440;2023-11-21T12:40:12;55.00;;;52.90;;
7154;SDS011;3619;53.784;10.440;2023-11-21T12:42:40;56.07;;;53.97;;
7154;SDS011;3619;53.784;10.440;2023-11-21T12:45:19;62.97;;;60.57;;
7154;SDS011;3619;53.784;10.440;2023-11-21T12:47:48;62.90;;;60.50;;
7154;SDS011;3619;53.784;10.440;2023-11-21T12:50:18;72.27;;;69.57;;
7154;SDS011;3619;53.784;10.440;2023-11-21T12:52:48;57.73;;;55.53;;
7154;SDS011;3619;53.784;10.440;2023-11-21T12:55:17;64.83;;;62.40;;
7154;SDS011;3619;53.784;10.440;2023-11-21T12:57:47;63.77;;;61.23;;
7154;SDS011;3619;53.784;10.440;2023-11-21T13:00:17;52.00;;;50.00;;
7154;SDS011;3619;53.784;10.440;2023-11-21T13:02:53;62.37;;;60.00;;
7154;SDS011;3619;53.784;10.440;2023-11-21T13:05:25;64.03;;;61.63;;
7154;SDS011;3619;53.784;10.440;2023-11-21T13:07:53;69.83;;;67.23;;
7154;SDS011;3619;53.784;10.440;2023-11-21T13:10:22;63.90;;;61.50;;
7154;SDS011;3619;53.784;10.440;2023-11-21T13:12:54;70.07;;;67.47;;
7154;SDS011;3619;53.784;10.440;2023-11-21T13:15:24;68.13;;;65.63;;
7154;SDS011;3619;53.784;10.440;2023-11-21T13:17:53;69.97;;;67.37;;
7154;SDS011;3619;53.784;10.440;2023-11-21T13:20:21;59.47;;;57.23;;
7154;SDS011;3619;53.784;10.440;2023-11-21T13:22:50;71.17;;;68.37;;
7154;SDS011;3619;53.784;10.440;2023-11-21T13:25:19;68.93;;;66.33;;
7154;SDS011;3619;53.784;10.440;2023-11-21T13:27:48;67.70;;;65.20;;
7154;SDS011;3619;53.784;10.440;2023-11-21T13:30:25;64.33;;;61.93;;
7154;SDS011;3619;53.784;10.440;2023-11-21T13:32:52;70.93;;;68.33;;
7154;SDS011;3619;53.784;10.440;2023-11-21T13:35:22;77.93;;;75.03;;
7154;SDS011;3619;53.784;10.440;2023-11-21T13:37:56;67.47;;;64.97;;
7154;SDS011;3619;53.784;10.440;2023-11-21T13:40:25;67.27;;;64.77;;
7154;SDS011;3619;53.784;10.440;2023-11-21T13:42:53;74.77;;;72.00;;
7154;SDS011;3619;53.784;10.440;2023-11-21T13:45:21;70.63;;;68.03;;
7154;SDS011;3619;53.784;10.440;2023-11-21T13:47:52;80.93;;;77.93;;
7154;SDS011;3619;53.784;10.440;2023-11-21T13:50:24;76.20;;;73.40;;
7154;SDS011;3619;53.784;10.440;2023-11-21T13:52:55;78.37;;;75.47;;
7154;SDS011;3619;53.784;10.440;2023-11-21T13:55:23;86.13;;;83.00;;
7154;SDS011;3619;53.784;10.440;2023-11-21T13:57:51;106.80;;;103.00;;
7154;SDS011;3619;53.784;10.440;2023-11-21T14:00:20;93.40;;;90.03;;
7154;SDS011;3619;53.784;10.440;2023-11-21T14:03:02;104.67;;;100.97;;
7154;SDS011;3619;53.784;10.440;2023-11-21T14:05:33;94.37;;;90.97;;
7154;SDS011;3619;53.784;10.440;2023-11-21T14:08:01;108.40;;;104.60;;
7154;SDS011;3619;53.784;10.440;2023-11-21T14:10:30;101.83;;;98.23;;
7154;SDS011;3619;53.784;10.440;2023-11-21T14:13:05;103.77;;;100.10;;
7154;SDS011;3619;53.784;10.440;2023-11-21T14:15:32;112.63;;;108.67;;
7154;SDS011;3619;53.784;10.440;2023-11-21T14:18:04;107.00;;;103.20;;
7154;SDS011;3619;53.784;10.440;2023-11-21T14:20:36;114.13;;;110.13;;
7154;SDS011;3619;53.784;10.440;2023-11-21T14:23:04;107.53;;;103.73;;
7154;SDS011;3619;53.784;10.440;2023-11-21T14:25:34;100.33;;;96.73;;
7154;SDS011;3619;53.784;10.440;2023-11-21T14:28:01;95.60;;;92.20;;
7154;SDS011;3619;53.784;10.440;2023-11-21T14:30:30;82.73;;;79.73;;